sensor_id;sensor_type;location;lat;lon;timestamp;P1;durP1;ratioP1;P2;durP2;ratioP2
70543;SDS011;58097;48.364;-1.224;2023-08-07T00:00:12;7.63;;;2.72;;
70543;SDS011;58097;48.364;-1.224;2023-08-07T00:02:37;8.43;;;2.70;;
70543;SDS011;58097;48.364;-1.224;2023-08-07T00:05:03;7.97;;;2.53;;
70543;SDS011;58097;48.364;-1.224;2023-08-07T00:07:29;5.00;;;2.70;;
70543;SDS011;58097;48.364;-1.224;2023-08-07T00:09:55;2.88;;;1.85;;
70543;SDS011;58097;48.364;-1.224;2023-08-07T00:12:20;12.95;;;2.13;;
70543;SDS011;58097;48.364;-1.224;2023-08-07T00:14:47;4.32;;;1.80;;
70543;SDS011;58097;48.364;-1.224;2023-08-07T00:17:15;9.25;;;2.28;;
70543;SDS011;58097;48.364;-1.224;2023-08-07T00:19:40;8.48;;;1.83;;
70543;SDS011;58097;48.364;-1.224;2023-08-07T00:22:06;7.40;;;1.90;;
70543;SDS011;58097;48.364;-1.224;2023-08-07T00:24:31;12.25;;;2.78;;
70543;SDS011;58097;48.364;-1.224;2023-08-07T00:26:56;4.32;;;1.98;;
70543;SDS011;58097;48.364;-1.224;2023-08-07T00:29:22;9.35;;;2.80;;
70543;SDS011;58097;48.364;-1.224;2023-08-07T00:31:47;8.82;;;2.17;;
70543;SDS011;58097;48.364;-1.224;2023-08-07T00:34:12;9.60;;;2.70;;
70543;SDS011;58097;48.364;-1.224;2023-08-07T00:36:38;15.00;;;2.38;;
70543;SDS011;58097;48.364;-1.224;2023-08-07T00:39:03;7.95;;;2.03;;
70543;SDS011;58097;48.364;-1.224;2023-08-07T00:41:29;5.72;;;2.25;;
70543;SDS011;58097;48.364;-1.224;2023-08-07T00:43:54;8.02;;;2.30;;
70543;SDS011;58097;48.364;-1.224;2023-08-07T00:46:19;7.80;;;2.70;;
70543;SDS011;58097;48.364;-1.224;2023-08-07T00:48:45;6.68;;;2.45;;
70543;SDS011;58097;48.364;-1.224;2023-08-07T00:51:11;7.00;;;2.03;;
70543;SDS011;58097;48.364;-1.224;2023-08-07T00:53:37;3.90;;;1.77;;
70543;SDS011;58097;48.364;-1.224;2023-08-07T00:56:04;7.47;;;2.55;;
70543;SDS011;58097;48.364;-1.224;2023-08-07T00:58:30;4.80;;;2.38;;
70543;SDS011;58097;48.364;-1.224;2023-08-07T01:00:57;7.22;;;1.73;;
70543;SDS011;58097;48.364;-1.224;2023-08-07T01:03:23;7.28;;;2.35;;
70543;SDS011;58097;48.364;-1.224;2023-08-07T01:05:48;3.83;;;1.60;;
70543;SDS011;58097;48.364;-1.224;2023-08-07T01:08:14;3.38;;;1.73;;
70543;SDS011;58097;48.364;-1.224;2023-08-07T01:13:33;8.68;;;1.95;;
70543;SDS011;58097;48.364;-1.224;2023-08-07T01:16:04;6.13;;;2.00;;
70543;SDS011;58097;48.364;-1.224;2023-08-07T01:18:37;7.53;;;1.77;;
70543;SDS011;58097;48.364;-1.224;2023-08-07T01:21:04;7.57;;;1.67;;
70543;SDS011;58097;48.364;-1.224;2023-08-07T01:23:29;4.03;;;1.95;;
70543;SDS011;58097;48.364;-1.224;2023-08-07T01:25:55;6.03;;;2.00;;
70543;SDS011;58097;48.364;-1.224;2023-08-07T01:28:27;5.57;;;2.20;;
70543;SDS011;58097;48.364;-1.224;2023-08-07T01:30:59;10.27;;;1.92;;
70543;SDS011;58097;48.364;-1.224;2023-08-07T01:33:35;3.10;;;1.35;;
70543;SDS011;58097;48.364;-1.224;2023-08-07T01:36:11;7.00;;;1.80;;
70543;SDS011;58097;48.364;-1.224;2023-08-07T01:38:37;6.10;;;2.45;;
70543;SDS011;58097;48.364;-1.224;2023-08-07T01:41:03;9.18;;;2.88;;
70543;SDS011;58097;48.364;-1.224;2023-08-07T01:43:29;7.18;;;2.08;;
70543;SDS011;58097;48.364;-1.224;2023-08-07T01:45:56;13.75;;;2.17;;
70543;SDS011;58097;48.364;-1.224;2023-08-07T01:48:22;7.43;;;2.30;;
70543;SDS011;58097;48.364;-1.224;2023-08-07T01:50:47;6.68;;;2.25;;
70543;SDS011;58097;48.364;-1.224;2023-08-07T01:53:12;5.18;;;2.08;;
70543;SDS011;58097;48.364;-1.224;2023-08-07T01:55:38;5.82;;;2.38;;
70543;SDS011;58097;48.364;-1.224;2023-08-07T01:58:03;9.02;;;2.40;;
70543;SDS011;58097;48.364;-1.224;2023-08-07T02:00:29;6.80;;;2.20;;
70543;SDS011;58097;48.364;-1.224;2023-08-07T02:02:54;3.95;;;1.80;;
70543;SDS011;58097;48.364;-1.224;2023-08-07T02:05:19;6.70;;;2.65;;
70543;SDS011;58097;48.364;-1.224;2023-08-07T02:07:45;5.15;;;2.30;;
70543;SDS011;58097;48.364;-1.224;2023-08-07T02:10:10;7.78;;;2.20;;
70543;SDS011;58097;48.364;-1.224;2023-08-07T02:12:35;10.65;;;2.63;;
70543;SDS011;58097;48.364;-1.224;2023-08-07T02:15:01;6.38;;;2.78;;
70543;SDS011;58097;48.364;-1.224;2023-08-07T02:17:27;8.77;;;2.40;;
70543;SDS011;58097;48.364;-1.224;2023-08-07T02:19:54;3.38;;;1.90;;
70543;SDS011;58097;48.364;-1.224;2023-08-07T02:22:20;8.77;;;2.53;;
70543;SDS011;58097;48.364;-1.224;2023-08-07T02:24:45;6.88;;;2.85;;
70543;SDS011;58097;48.364;-1.224;2023-08-07T02:27:11;8.82;;;3.15;;
70543;SDS011;58097;48.364;-1.224;2023-08-07T02:29:36;6.90;;;2.63;;
70543;SDS011;58097;48.364;-1.224;2023-08-07T02:32:01;5.20;;;2.33;;
70543;SDS011;58097;48.364;-1.224;2023-08-07T02:34:28;8.15;;;2.92;;
70543;SDS011;58097;48.364;-1.224;2023-08-07T02:36:56;6.30;;;2.53;;
70543;SDS011;58097;48.364;-1.224;2023-08-07T02:39:22;3.25;;;2.30;;
70543;SDS011;58097;48.364;-1.224;2023-08-07T02:41:47;5.15;;;2.22;;
70543;SDS011;58097;48.364;-1.224;2023-08-07T02:44:12;6.15;;;2.50;;
70543;SDS011;58097;48.364;-1.224;2023-08-07T02:46:38;3.38;;;2.20;;
70543;SDS011;58097;48.364;-1.224;2023-08-07T02:49:03;9.05;;;2.80;;
70543;SDS011;58097;48.364;-1.224;2023-08-07T02:51:29;5.70;;;2.38;;
70543;SDS011;58097;48.364;-1.224;2023-08-07T02:53:55;9.23;;;2.55;;
70543;SDS011;58097;48.364;-1.224;2023-08-07T02:56:20;4.97;;;2.42;;
70543;SDS011;58097;48.364;-1.224;2023-08-07T02:58:45;8.93;;;2.38;;
70543;SDS011;58097;48.364;-1.224;2023-08-07T03:01:11;4.95;;;2.05;;
70543;SDS011;58097;48.364;-1.224;2023-08-07T03:03:36;1.70;;;1.55;;
70543;SDS011;58097;48.364;-1.224;2023-08-07T03:06:02;5.88;;;1.90;;
70543;SDS011;58097;48.364;-1.224;2023-08-07T03:08:28;4.32;;;2.50;;
70543;SDS011;58097;48.364;-1.224;2023-08-07T03:10:56;4.10;;;2.30;;
70543;SDS011;58097;48.364;-1.224;2023-08-07T03:13:22;5.63;;;2.28;;
70543;SDS011;58097;48.364;-1.224;2023-08-07T03:15:48;5.03;;;2.08;;
70543;SDS011;58097;48.364;-1.224;2023-08-07T03:18:15;2.75;;;2.03;;
70543;SDS011;58097;48.364;-1.224;2023-08-07T03:20:41;7.53;;;2.35;;
70543;SDS011;58097;48.364;-1.224;2023-08-07T03:23:08;5.10;;;2.15;;
70543;SDS011;58097;48.364;-1.224;2023-08-07T03:25:34;5.15;;;1.88;;
70543;SDS011;58097;48.364;-1.224;2023-08-07T03:27:59;5.63;;;1.75;;
70543;SDS011;58097;48.364;-1.224;2023-08-07T03:30:25;5.80;;;2.42;;
70543;SDS011;58097;48.364;-1.224;2023-08-07T03:32:50;5.25;;;2.17;;
70543;SDS011;58097;48.364;-1.224;2023-08-07T03:35:16;3.22;;;2.35;;
70543;SDS011;58097;48.364;-1.224;2023-08-07T03:37:41;6.65;;;2.30;;
70543;SDS011;58097;48.364;-1.224;2023-08-07T03:40:06;5.82;;;2.50;;
70543;SDS011;58097;48.364;-1.224;2023-08-07T03:42:32;5.20;;;2.25;;
70543;SDS011;58097;48.364;-1.224;2023-08-07T03:44:58;3.55;;;2.00;;
70543;SDS011;58097;48.364;-1.224;2023-08-07T03:47:23;6.55;;;2.22;;
70543;SDS011;58097;48.364;-1.224;2023-08-07T03:49:49;8.55;;;2.05;;
70543;SDS011;58097;48.364;-1.224;2023-08-07T03:52:14;9.30;;;2.80;;
70543;SDS011;58097;48.364;-1.224;2023-08-07T03:54:40;6.63;;;2.15;;
70543;SDS011;58097;48.364;-1.224;2023-08-07T03:57:05;9.45;;;2.38;;
70543;SDS011;58097;48.364;-1.224;2023-08-07T03:59:30;5.40;;;2.10;;
70543;SDS011;58097;48.364;-1.224;2023-08-07T04:01:56;5.25;;;2.17;;
70543;SDS011;58097;48.364;-1.224;2023-08-07T04:04:21;3.70;;;1.98;;
70543;SDS011;58097;48.364;-1.224;2023-08-07T04:06:47;5.60;;;1.73;;
70543;SDS011;58097;48.364;-1.224;2023-08-07T04:09:12;5.03;;;2.50;;
70543;SDS011;58097;48.364;-1.224;2023-08-07T04:11:37;3.00;;;2.13;;
70543;SDS011;58097;48.364;-1.224;2023-08-07T04:14:03;4.80;;;2.40;;
70543;SDS011;58097;48.364;-1.224;2023-08-07T04:16:29;5.25;;;2.17;;
70543;SDS011;58097;48.364;-1.224;2023-08-07T04:18:56;2.63;;;2.00;;
70543;SDS011;58097;48.364;-1.224;2023-08-07T04:21:21;2.17;;;1.92;;
70543;SDS011;58097;48.364;-1.224;2023-08-07T04:23:47;8.82;;;2.00;;
70543;SDS011;58097;48.364;-1.224;2023-08-07T04:26:12;3.72;;;2.28;;
70543;SDS011;58097;48.364;-1.224;2023-08-07T04:28:39;2.75;;;1.75;;
70543;SDS011;58097;48.364;-1.224;2023-08-07T04:31:04;4.60;;;1.95;;
70543;SDS011;58097;48.364;-1.224;2023-08-07T04:33:30;6.18;;;2.35;;
70543;SDS011;58097;48.364;-1.224;2023-08-07T04:35:55;5.45;;;2.15;;
70543;SDS011;58097;48.364;-1.224;2023-08-07T04:38:20;3.53;;;1.88;;
70543;SDS011;58097;48.364;-1.224;2023-08-07T04:40:47;3.92;;;1.90;;
70543;SDS011;58097;48.364;-1.224;2023-08-07T04:43:14;4.53;;;2.10;;
70543;SDS011;58097;48.364;-1.224;2023-08-07T04:45:44;4.70;;;1.98;;
70543;SDS011;58097;48.364;-1.224;2023-08-07T04:48:12;4.30;;;1.85;;
70543;SDS011;58097;48.364;-1.224;2023-08-07T04:50:38;2.88;;;1.98;;
70543;SDS011;58097;48.364;-1.224;2023-08-07T04:53:06;3.28;;;1.90;;
70543;SDS011;58097;48.364;-1.224;2023-08-07T04:55:32;2.47;;;2.08;;
70543;SDS011;58097;48.364;-1.224;2023-08-07T04:57:58;6.50;;;1.85;;
70543;SDS011;58097;48.364;-1.224;2023-08-07T05:00:23;4.60;;;1.83;;
70543;SDS011;58097;48.364;-1.224;2023-08-07T05:02:49;4.32;;;2.40;;
70543;SDS011;58097;48.364;-1.224;2023-08-07T05:05:15;3.38;;;2.25;;
70543;SDS011;58097;48.364;-1.224;2023-08-07T05:07:41;4.18;;;1.83;;
70543;SDS011;58097;48.364;-1.224;2023-08-07T05:10:06;2.45;;;1.88;;
70543;SDS011;58097;48.364;-1.224;2023-08-07T05:12:32;3.08;;;2.20;;
70543;SDS011;58097;48.364;-1.224;2023-08-07T05:14:58;2.60;;;1.90;;
70543;SDS011;58097;48.364;-1.224;2023-08-07T05:17:23;6.38;;;1.92;;
70543;SDS011;58097;48.364;-1.224;2023-08-07T05:19:48;1.92;;;1.70;;
70543;SDS011;58097;48.364;-1.224;2023-08-07T05:22:14;3.67;;;1.88;;
70543;SDS011;58097;48.364;-1.224;2023-08-07T05:24:40;2.72;;;1.95;;
70543;SDS011;58097;48.364;-1.224;2023-08-07T05:27:06;3.55;;;1.73;;
70543;SDS011;58097;48.364;-1.224;2023-08-07T05:29:33;3.80;;;2.17;;
70543;SDS011;58097;48.364;-1.224;2023-08-07T05:32:08;2.40;;;1.70;;
70543;SDS011;58097;48.364;-1.224;2023-08-07T05:34:37;2.65;;;1.85;;
70543;SDS011;58097;48.364;-1.224;2023-08-07T05:37:03;2.30;;;1.77;;
70543;SDS011;58097;48.364;-1.224;2023-08-07T05:39:28;5.15;;;2.35;;
70543;SDS011;58097;48.364;-1.224;2023-08-07T05:41:54;3.75;;;1.88;;
70543;SDS011;58097;48.364;-1.224;2023-08-07T05:44:22;4.55;;;2.08;;
70543;SDS011;58097;48.364;-1.224;2023-08-07T05:46:48;6.43;;;2.20;;
70543;SDS011;58097;48.364;-1.224;2023-08-07T05:49:13;3.22;;;2.25;;
70543;SDS011;58097;48.364;-1.224;2023-08-07T05:51:38;7.22;;;2.85;;
70543;SDS011;58097;48.364;-1.224;2023-08-07T05:54:04;6.38;;;2.40;;
70543;SDS011;58097;48.364;-1.224;2023-08-07T05:56:29;3.92;;;1.73;;
70543;SDS011;58097;48.364;-1.224;2023-08-07T05:58:54;7.82;;;2.35;;
70543;SDS011;58097;48.364;-1.224;2023-08-07T06:01:20;7.60;;;2.05;;
70543;SDS011;58097;48.364;-1.224;2023-08-07T06:03:45;5.80;;;2.53;;
70543;SDS011;58097;48.364;-1.224;2023-08-07T06:06:12;7.15;;;1.92;;
70543;SDS011;58097;48.364;-1.224;2023-08-07T06:08:37;4.72;;;2.33;;
70543;SDS011;58097;48.364;-1.224;2023-08-07T06:11:03;8.65;;;2.17;;
70543;SDS011;58097;48.364;-1.224;2023-08-07T06:13:30;6.47;;;2.63;;
70543;SDS011;58097;48.364;-1.224;2023-08-07T06:15:55;7.85;;;2.30;;
70543;SDS011;58097;48.364;-1.224;2023-08-07T06:18:21;9.90;;;2.58;;
70543;SDS011;58097;48.364;-1.224;2023-08-07T06:20:46;4.40;;;2.38;;
70543;SDS011;58097;48.364;-1.224;2023-08-07T06:23:12;6.85;;;2.45;;
70543;SDS011;58097;48.364;-1.224;2023-08-07T06:25:38;6.97;;;2.05;;
70543;SDS011;58097;48.364;-1.224;2023-08-07T06:28:03;8.00;;;3.22;;
70543;SDS011;58097;48.364;-1.224;2023-08-07T06:30:29;6.22;;;2.17;;
70543;SDS011;58097;48.364;-1.224;2023-08-07T06:32:55;7.38;;;2.60;;
70543;SDS011;58097;48.364;-1.224;2023-08-07T06:35:21;4.68;;;2.15;;
70543;SDS011;58097;48.364;-1.224;2023-08-07T06:37:46;6.13;;;2.55;;
70543;SDS011;58097;48.364;-1.224;2023-08-07T06:40:11;6.20;;;2.72;;
70543;SDS011;58097;48.364;-1.224;2023-08-07T06:42:37;6.93;;;2.20;;
70543;SDS011;58097;48.364;-1.224;2023-08-07T06:45:02;5.10;;;2.65;;
70543;SDS011;58097;48.364;-1.224;2023-08-07T06:47:28;9.90;;;3.35;;
70543;SDS011;58097;48.364;-1.224;2023-08-07T06:49:53;7.15;;;2.97;;
70543;SDS011;58097;48.364;-1.224;2023-08-07T06:52:18;7.03;;;3.10;;
70543;SDS011;58097;48.364;-1.224;2023-08-07T06:54:44;11.68;;;3.03;;
70543;SDS011;58097;48.364;-1.224;2023-08-07T06:57:09;6.28;;;2.38;;
70543;SDS011;58097;48.364;-1.224;2023-08-07T06:59:35;9.18;;;2.38;;
70543;SDS011;58097;48.364;-1.224;2023-08-07T07:02:00;5.78;;;2.58;;
70543;SDS011;58097;48.364;-1.224;2023-08-07T07:04:25;11.38;;;2.75;;
70543;SDS011;58097;48.364;-1.224;2023-08-07T07:06:51;4.07;;;2.72;;
70543;SDS011;58097;48.364;-1.224;2023-08-07T07:09:16;4.93;;;2.50;;
70543;SDS011;58097;48.364;-1.224;2023-08-07T07:11:42;4.03;;;2.38;;
70543;SDS011;58097;48.364;-1.224;2023-08-07T07:14:09;4.68;;;2.60;;
70543;SDS011;58097;48.364;-1.224;2023-08-07T07:16:35;6.05;;;2.40;;
70543;SDS011;58097;48.364;-1.224;2023-08-07T07:19:01;3.03;;;2.40;;
70543;SDS011;58097;48.364;-1.224;2023-08-07T07:21:26;5.97;;;2.63;;
70543;SDS011;58097;48.364;-1.224;2023-08-07T07:23:51;7.10;;;2.55;;
70543;SDS011;58097;48.364;-1.224;2023-08-07T07:26:17;6.60;;;3.22;;
70543;SDS011;58097;48.364;-1.224;2023-08-07T07:28:42;6.25;;;2.28;;
70543;SDS011;58097;48.364;-1.224;2023-08-07T07:31:07;3.13;;;2.50;;
70543;SDS011;58097;48.364;-1.224;2023-08-07T07:33:36;3.22;;;2.67;;
70543;SDS011;58097;48.364;-1.224;2023-08-07T07:36:02;5.65;;;2.45;;
70543;SDS011;58097;48.364;-1.224;2023-08-07T07:38:27;7.43;;;2.47;;
70543;SDS011;58097;48.364;-1.224;2023-08-07T07:40:53;6.07;;;2.67;;
70543;SDS011;58097;48.364;-1.224;2023-08-07T07:43:21;5.00;;;2.38;;
70543;SDS011;58097;48.364;-1.224;2023-08-07T07:45:47;4.40;;;2.55;;
70543;SDS011;58097;48.364;-1.224;2023-08-07T07:48:12;8.10;;;2.30;;
70543;SDS011;58097;48.364;-1.224;2023-08-07T07:50:39;4.90;;;2.20;;
70543;SDS011;58097;48.364;-1.224;2023-08-07T07:53:04;5.93;;;2.65;;
70543;SDS011;58097;48.364;-1.224;2023-08-07T07:55:31;5.82;;;2.50;;
70543;SDS011;58097;48.364;-1.224;2023-08-07T07:57:57;3.80;;;2.25;;
70543;SDS011;58097;48.364;-1.224;2023-08-07T08:00:22;8.48;;;2.67;;
70543;SDS011;58097;48.364;-1.224;2023-08-07T08:02:51;4.22;;;1.88;;
70543;SDS011;58097;48.364;-1.224;2023-08-07T08:05:18;10.48;;;2.53;;
70543;SDS011;58097;48.364;-1.224;2023-08-07T08:07:43;8.20;;;2.40;;
70543;SDS011;58097;48.364;-1.224;2023-08-07T08:10:09;3.53;;;1.70;;
70543;SDS011;58097;48.364;-1.224;2023-08-07T08:12:35;5.38;;;2.58;;
70543;SDS011;58097;48.364;-1.224;2023-08-07T08:15:01;9.07;;;2.88;;
70543;SDS011;58097;48.364;-1.224;2023-08-07T08:17:28;5.68;;;2.40;;
70543;SDS011;58097;48.364;-1.224;2023-08-07T08:19:53;4.50;;;1.90;;
70543;SDS011;58097;48.364;-1.224;2023-08-07T08:22:19;5.25;;;1.85;;
70543;SDS011;58097;48.364;-1.224;2023-08-07T08:24:44;8.48;;;2.28;;
70543;SDS011;58097;48.364;-1.224;2023-08-07T08:27:10;5.43;;;1.60;;
70543;SDS011;58097;48.364;-1.224;2023-08-07T08:29:35;4.07;;;1.50;;
70543;SDS011;58097;48.364;-1.224;2023-08-07T08:32:00;7.70;;;1.52;;
70543;SDS011;58097;48.364;-1.224;2023-08-07T08:34:26;2.65;;;1.40;;
70543;SDS011;58097;48.364;-1.224;2023-08-07T08:36:52;2.92;;;1.45;;
70543;SDS011;58097;48.364;-1.224;2023-08-07T08:39:17;4.50;;;1.42;;
70543;SDS011;58097;48.364;-1.224;2023-08-07T08:41:43;11.45;;;1.95;;
70543;SDS011;58097;48.364;-1.224;2023-08-07T08:44:12;4.13;;;1.23;;
70543;SDS011;58097;48.364;-1.224;2023-08-07T08:46:39;7.13;;;1.52;;
70543;SDS011;58097;48.364;-1.224;2023-08-07T08:49:07;4.30;;;1.20;;
70543;SDS011;58097;48.364;-1.224;2023-08-07T08:51:34;2.78;;;1.73;;
70543;SDS011;58097;48.364;-1.224;2023-08-07T08:54:00;2.97;;;1.40;;
70543;SDS011;58097;48.364;-1.224;2023-08-07T08:56:27;5.78;;;1.60;;
70543;SDS011;58097;48.364;-1.224;2023-08-07T08:58:54;2.75;;;1.48;;
70543;SDS011;58097;48.364;-1.224;2023-08-07T09:01:20;4.45;;;1.80;;
70543;SDS011;58097;48.364;-1.224;2023-08-07T09:03:47;5.45;;;1.88;;
70543;SDS011;58097;48.364;-1.224;2023-08-07T09:06:12;4.40;;;1.35;;
70543;SDS011;58097;48.364;-1.224;2023-08-07T09:08:40;4.50;;;1.30;;
70543;SDS011;58097;48.364;-1.224;2023-08-07T09:11:08;4.03;;;1.50;;
70543;SDS011;58097;48.364;-1.224;2023-08-07T09:13:34;4.80;;;1.35;;
70543;SDS011;58097;48.364;-1.224;2023-08-07T09:16:01;7.95;;;1.45;;
70543;SDS011;58097;48.364;-1.224;2023-08-07T09:18:28;3.47;;;1.70;;
70543;SDS011;58097;48.364;-1.224;2023-08-07T09:20:53;6.13;;;1.60;;
70543;SDS011;58097;48.364;-1.224;2023-08-07T09:23:19;1.77;;;0.98;;
70543;SDS011;58097;48.364;-1.224;2023-08-07T09:25:45;7.47;;;1.45;;
70543;SDS011;58097;48.364;-1.224;2023-08-07T09:28:10;4.78;;;1.35;;
70543;SDS011;58097;48.364;-1.224;2023-08-07T09:30:36;4.22;;;1.63;;
70543;SDS011;58097;48.364;-1.224;2023-08-07T09:33:03;2.72;;;1.10;;
70543;SDS011;58097;48.364;-1.224;2023-08-07T09:35:29;2.60;;;1.10;;
70543;SDS011;58097;48.364;-1.224;2023-08-07T09:37:59;3.30;;;1.30;;
70543;SDS011;58097;48.364;-1.224;2023-08-07T09:40:25;5.43;;;1.50;;
70543;SDS011;58097;48.364;-1.224;2023-08-07T09:42:50;5.35;;;1.42;;
70543;SDS011;58097;48.364;-1.224;2023-08-07T09:45:21;7.35;;;1.45;;
70543;SDS011;58097;48.364;-1.224;2023-08-07T09:48:00;2.67;;;1.08;;
70543;SDS011;58097;48.364;-1.224;2023-08-07T09:50:28;3.67;;;1.60;;
70543;SDS011;58097;48.364;-1.224;2023-08-07T09:52:54;3.47;;;1.23;;
70543;SDS011;58097;48.364;-1.224;2023-08-07T09:55:23;1.73;;;1.00;;
70543;SDS011;58097;48.364;-1.224;2023-08-07T09:57:49;3.55;;;1.50;;
70543;SDS011;58097;48.364;-1.224;2023-08-07T10:00:15;2.33;;;1.65;;
70543;SDS011;58097;48.364;-1.224;2023-08-07T10:02:41;3.72;;;1.25;;
70543;SDS011;58097;48.364;-1.224;2023-08-07T10:05:08;3.25;;;1.13;;
70543;SDS011;58097;48.364;-1.224;2023-08-07T10:07:35;3.72;;;1.40;;
70543;SDS011;58097;48.364;-1.224;2023-08-07T10:10:02;4.72;;;1.48;;
70543;SDS011;58097;48.364;-1.224;2023-08-07T10:12:28;5.18;;;1.65;;
70543;SDS011;58097;48.364;-1.224;2023-08-07T10:14:54;3.75;;;1.10;;
70543;SDS011;58097;48.364;-1.224;2023-08-07T10:17:23;1.95;;;1.13;;
70543;SDS011;58097;48.364;-1.224;2023-08-07T10:19:48;2.63;;;1.27;;
70543;SDS011;58097;48.364;-1.224;2023-08-07T10:22:15;3.90;;;1.55;;
70543;SDS011;58097;48.364;-1.224;2023-08-07T10:24:42;4.55;;;1.40;;
70543;SDS011;58097;48.364;-1.224;2023-08-07T10:27:09;3.47;;;1.35;;
70543;SDS011;58097;48.364;-1.224;2023-08-07T10:29:37;3.08;;;1.30;;
70543;SDS011;58097;48.364;-1.224;2023-08-07T10:32:05;6.88;;;1.50;;
70543;SDS011;58097;48.364;-1.224;2023-08-07T10:34:35;6.55;;;1.58;;
70543;SDS011;58097;48.364;-1.224;2023-08-07T10:37:02;4.15;;;1.23;;
70543;SDS011;58097;48.364;-1.224;2023-08-07T10:39:31;4.45;;;1.15;;
70543;SDS011;58097;48.364;-1.224;2023-08-07T10:41:57;2.83;;;1.13;;
70543;SDS011;58097;48.364;-1.224;2023-08-07T10:44:24;2.17;;;1.40;;
70543;SDS011;58097;48.364;-1.224;2023-08-07T10:46:54;2.00;;;1.00;;
70543;SDS011;58097;48.364;-1.224;2023-08-07T10:54:44;2.13;;;0.80;;
70543;SDS011;58097;48.364;-1.224;2023-08-07T10:57:11;2.90;;;0.98;;
70543;SDS011;58097;48.364;-1.224;2023-08-07T10:59:38;4.40;;;1.20;;
70543;SDS011;58097;48.364;-1.224;2023-08-07T11:02:10;2.55;;;0.93;;
70543;SDS011;58097;48.364;-1.224;2023-08-07T11:04:37;4.43;;;1.20;;
70543;SDS011;58097;48.364;-1.224;2023-08-07T11:07:03;3.55;;;1.80;;
70543;SDS011;58097;48.364;-1.224;2023-08-07T11:09:29;5.45;;;1.40;;
70543;SDS011;58097;48.364;-1.224;2023-08-07T11:11:54;3.53;;;1.30;;
70543;SDS011;58097;48.364;-1.224;2023-08-07T11:14:20;5.00;;;1.05;;
70543;SDS011;58097;48.364;-1.224;2023-08-07T11:16:46;2.67;;;1.17;;
70543;SDS011;58097;48.364;-1.224;2023-08-07T11:19:16;2.38;;;1.20;;
70543;SDS011;58097;48.364;-1.224;2023-08-07T11:23:24;2.97;;;0.90;;
70543;SDS011;58097;48.364;-1.224;2023-08-07T11:25:51;4.45;;;0.93;;
70543;SDS011;58097;48.364;-1.224;2023-08-07T11:28:20;4.90;;;1.00;;
70543;SDS011;58097;48.364;-1.224;2023-08-07T11:30:50;2.95;;;1.10;;
70543;SDS011;58097;48.364;-1.224;2023-08-07T11:33:17;3.78;;;0.80;;
70543;SDS011;58097;48.364;-1.224;2023-08-07T11:35:44;6.40;;;1.10;;
70543;SDS011;58097;48.364;-1.224;2023-08-07T11:38:10;3.80;;;1.60;;
70543;SDS011;58097;48.364;-1.224;2023-08-07T11:40:35;3.35;;;1.45;;
70543;SDS011;58097;48.364;-1.224;2023-08-07T11:43:01;2.05;;;0.82;;
70543;SDS011;58097;48.364;-1.224;2023-08-07T11:45:26;1.67;;;1.10;;
70543;SDS011;58097;48.364;-1.224;2023-08-07T11:47:52;1.55;;;1.15;;
70543;SDS011;58097;48.364;-1.224;2023-08-07T11:50:20;3.63;;;0.95;;
70543;SDS011;58097;48.364;-1.224;2023-08-07T11:52:46;4.10;;;0.90;;
70543;SDS011;58097;48.364;-1.224;2023-08-07T11:55:13;2.78;;;1.00;;
70543;SDS011;58097;48.364;-1.224;2023-08-07T11:57:39;3.33;;;1.20;;
70543;SDS011;58097;48.364;-1.224;2023-08-07T12:00:08;5.50;;;1.65;;
70543;SDS011;58097;48.364;-1.224;2023-08-07T12:02:43;1.40;;;0.90;;
70543;SDS011;58097;48.364;-1.224;2023-08-07T12:05:09;2.80;;;1.13;;
70543;SDS011;58097;48.364;-1.224;2023-08-07T12:07:38;5.72;;;1.20;;
70543;SDS011;58097;48.364;-1.224;2023-08-07T12:10:07;3.35;;;1.15;;
70543;SDS011;58097;48.364;-1.224;2023-08-07T12:12:37;1.63;;;1.23;;
70543;SDS011;58097;48.364;-1.224;2023-08-07T12:15:06;2.58;;;1.08;;
70543;SDS011;58097;48.364;-1.224;2023-08-07T12:17:37;1.67;;;0.98;;
70543;SDS011;58097;48.364;-1.224;2023-08-07T12:20:03;2.88;;;0.88;;
70543;SDS011;58097;48.364;-1.224;2023-08-07T12:22:36;5.18;;;1.58;;
70543;SDS011;58097;48.364;-1.224;2023-08-07T12:25:02;2.55;;;0.95;;
70543;SDS011;58097;48.364;-1.224;2023-08-07T12:27:27;3.33;;;1.05;;
70543;SDS011;58097;48.364;-1.224;2023-08-07T12:29:53;3.70;;;1.00;;
70543;SDS011;58097;48.364;-1.224;2023-08-07T12:32:18;3.80;;;1.52;;
70543;SDS011;58097;48.364;-1.224;2023-08-07T12:34:44;3.60;;;1.33;;
70543;SDS011;58097;48.364;-1.224;2023-08-07T12:37:09;5.20;;;1.38;;
70543;SDS011;58097;48.364;-1.224;2023-08-07T12:39:34;1.63;;;1.17;;
70543;SDS011;58097;48.364;-1.224;2023-08-07T12:42:00;4.05;;;1.00;;
70543;SDS011;58097;48.364;-1.224;2023-08-07T12:44:25;3.50;;;1.42;;
70543;SDS011;58097;48.364;-1.224;2023-08-07T12:46:51;4.22;;;0.98;;
70543;SDS011;58097;48.364;-1.224;2023-08-07T12:49:17;2.33;;;1.00;;
70543;SDS011;58097;48.364;-1.224;2023-08-07T12:51:44;4.63;;;1.40;;
70543;SDS011;58097;48.364;-1.224;2023-08-07T12:54:09;3.63;;;1.08;;
70543;SDS011;58097;48.364;-1.224;2023-08-07T12:56:35;6.35;;;1.20;;
70543;SDS011;58097;48.364;-1.224;2023-08-07T12:59:01;5.97;;;1.30;;
70543;SDS011;58097;48.364;-1.224;2023-08-07T13:01:26;3.25;;;1.20;;
70543;SDS011;58097;48.364;-1.224;2023-08-07T13:03:52;4.97;;;1.75;;
70543;SDS011;58097;48.364;-1.224;2023-08-07T13:06:17;4.82;;;0.90;;
70543;SDS011;58097;48.364;-1.224;2023-08-07T13:08:42;4.38;;;1.70;;
70543;SDS011;58097;48.364;-1.224;2023-08-07T13:11:08;2.58;;;1.08;;
70543;SDS011;58097;48.364;-1.224;2023-08-07T13:13:33;5.60;;;1.30;;
70543;SDS011;58097;48.364;-1.224;2023-08-07T13:15:58;5.07;;;1.23;;
70543;SDS011;58097;48.364;-1.224;2023-08-07T13:18:24;3.10;;;1.20;;
70543;SDS011;58097;48.364;-1.224;2023-08-07T13:20:49;4.43;;;1.13;;
70543;SDS011;58097;48.364;-1.224;2023-08-07T13:23:14;6.70;;;1.73;;
70543;SDS011;58097;48.364;-1.224;2023-08-07T13:25:40;1.92;;;1.00;;
70543;SDS011;58097;48.364;-1.224;2023-08-07T13:28:06;9.13;;;1.30;;
70543;SDS011;58097;48.364;-1.224;2023-08-07T13:30:34;2.08;;;1.10;;
70543;SDS011;58097;48.364;-1.224;2023-08-07T13:33:00;4.30;;;1.48;;
70543;SDS011;58097;48.364;-1.224;2023-08-07T13:35:25;5.22;;;1.27;;
70543;SDS011;58097;48.364;-1.224;2023-08-07T13:37:51;2.13;;;1.10;;
70543;SDS011;58097;48.364;-1.224;2023-08-07T13:40:16;4.93;;;1.60;;
70543;SDS011;58097;48.364;-1.224;2023-08-07T13:42:43;3.85;;;1.27;;
70543;SDS011;58097;48.364;-1.224;2023-08-07T13:45:09;7.20;;;1.83;;
70543;SDS011;58097;48.364;-1.224;2023-08-07T13:47:35;4.68;;;1.35;;
70543;SDS011;58097;48.364;-1.224;2023-08-07T13:50:01;3.33;;;1.45;;
70543;SDS011;58097;48.364;-1.224;2023-08-07T13:52:27;2.47;;;1.27;;
70543;SDS011;58097;48.364;-1.224;2023-08-07T13:54:52;3.92;;;1.25;;
70543;SDS011;58097;48.364;-1.224;2023-08-07T13:57:18;5.47;;;1.40;;
70543;SDS011;58097;48.364;-1.224;2023-08-07T13:59:43;4.00;;;1.27;;
70543;SDS011;58097;48.364;-1.224;2023-08-07T14:02:09;3.25;;;1.13;;
70543;SDS011;58097;48.364;-1.224;2023-08-07T14:04:35;4.30;;;1.60;;
70543;SDS011;58097;48.364;-1.224;2023-08-07T14:07:01;6.40;;;1.55;;
70543;SDS011;58097;48.364;-1.224;2023-08-07T14:09:28;5.38;;;1.40;;
70543;SDS011;58097;48.364;-1.224;2023-08-07T14:11:54;1.50;;;1.00;;
70543;SDS011;58097;48.364;-1.224;2023-08-07T14:14:20;4.75;;;1.20;;
70543;SDS011;58097;48.364;-1.224;2023-08-07T14:16:46;1.48;;;0.93;;
70543;SDS011;58097;48.364;-1.224;2023-08-07T14:19:11;2.97;;;1.42;;
70543;SDS011;58097;48.364;-1.224;2023-08-07T14:21:36;3.08;;;0.93;;
70543;SDS011;58097;48.364;-1.224;2023-08-07T14:24:02;2.58;;;1.23;;
70543;SDS011;58097;48.364;-1.224;2023-08-07T14:26:27;4.88;;;1.42;;
70543;SDS011;58097;48.364;-1.224;2023-08-07T14:28:53;3.05;;;1.20;;
70543;SDS011;58097;48.364;-1.224;2023-08-07T14:31:18;3.53;;;1.10;;
70543;SDS011;58097;48.364;-1.224;2023-08-07T14:33:43;4.40;;;1.17;;
70543;SDS011;58097;48.364;-1.224;2023-08-07T14:36:09;2.40;;;1.15;;